LSGG/GVA METAR and TAF weather

Enter ICAO airport designator
Station Type Date Time Source
LSGG METAR 2020/01/22 12:20 UTC NOAA

LSGG 221220Z VRB02KT CAVOK 04/M01 Q1032 NOSIG


Station Type Date Time Source
LSGG Decoded METAR 2020/01/22 12:20 UTC NOAA

Geneve-Cointrin, Switzerland (LSGG) 46-15N 006-08E 416M
Jan 22, 2020 - 07:20 AM EST / 2020.01.22 1220 UTC
Wind: Variable at 2 MPH (2 KT):0
Visibility: greater than 7 mile(s):0
Temperature: 39 F (4 C)
Dew Point: 30 F (-1 C)
Relative Humidity: 69%
Pressure (altimeter): 30.47 in. Hg (1032 hPa)
ob: LSGG 221220Z VRB02KT CAVOK 04/M01 Q1032 NOSIG
cycle: 12

Station Type Date Time Source
LSGG TAF 2020/01/22 12:33 UTC NOAA

TAF TAF LSGG 221125Z 2212/2318 VRB03KT CAVOK TX04/2215Z TNM02/2306Z TX03/2315Z
TEMPO 2222/2307 6000 NSC

Example: see airport list